DLH178 EKCH-EDDH
Flight info
| Callsign | DLH178 |
|---|---|
| Flight time | 0h 46m |
| Altitude | 22000 |
| Route | NEXEN T503 MICOS N850 BOGMU BOGMU5A |
| Aircraft | A320/M-SDE3FGHIRWY/LB1 |
Departure
| Time | 2026-05-05 15:55 |
|---|---|
| Airport | Copenhagen Kastrup Airport (EKCH) |
Arrival
| Time | 2026-05-05 16:41 |
|---|---|
| Airport | Hamburg Helmut Schmidt Airport (EDDH) |
| Time | Latitude | Longitude | Altitude | Speed | Heading |
|---|---|---|---|---|---|
| 2026-05-05 15:16 | 55.62657 | 12.64916 | 24 ft | 0 kts | 101° |
| 2026-05-05 15:42 | 55.62658 | 12.64910 | 24 ft | 3 kts | 102° |
| 2026-05-05 15:43 | 55.62664 | 12.64865 | 25 ft | 4 kts | 109° |
| 2026-05-05 15:43 | 55.62675 | 12.64822 | 26 ft | 4 kts | 129° |
| 2026-05-05 15:43 | 55.62693 | 12.64799 | 27 ft | 2 kts | 188° |
| 2026-05-05 15:43 | 55.62696 | 12.64799 | 27 ft | 1 kts | 190° |
| 2026-05-05 15:47 | 55.62690 | 12.64797 | 27 ft | 1 kts | 190° |
| 2026-05-05 15:47 | 55.62681 | 12.64794 | 26 ft | 4 kts | 191° |
| 2026-05-05 15:47 | 55.62616 | 12.64773 | 24 ft | 8 kts | 188° |
| 2026-05-05 15:47 | 55.62565 | 12.64769 | 24 ft | 8 kts | 180° |
| 2026-05-05 15:48 | 55.62494 | 12.64773 | 24 ft | 11 kts | 178° |
| 2026-05-05 15:48 | 55.62424 | 12.64780 | 24 ft | 9 kts | 176° |
| 2026-05-05 15:48 | 55.62366 | 12.64835 | 24 ft | 11 kts | 124° |
| 2026-05-05 15:48 | 55.62320 | 12.64960 | 25 ft | 13 kts | 123° |
| 2026-05-05 15:49 | 55.62264 | 12.65105 | 24 ft | 14 kts | 124° |
| 2026-05-05 15:49 | 55.62190 | 12.65152 | 24 ft | 12 kts | 202° |
| 2026-05-05 15:49 | 55.62125 | 12.65081 | 26 ft | 10 kts | 214° |
| 2026-05-05 15:49 | 55.62064 | 12.65010 | 26 ft | 13 kts | 211° |
| 2026-05-05 15:50 | 55.61974 | 12.64908 | 25 ft | 15 kts | 214° |
| 2026-05-05 15:50 | 55.61888 | 12.64810 | 24 ft | 14 kts | 212° |
| 2026-05-05 15:50 | 55.61812 | 12.64722 | 24 ft | 12 kts | 214° |
| 2026-05-05 15:50 | 55.61744 | 12.64643 | 25 ft | 11 kts | 212° |
| 2026-05-05 15:51 | 55.61684 | 12.64571 | 24 ft | 10 kts | 215° |
| 2026-05-05 15:51 | 55.61632 | 12.64510 | 25 ft | 8 kts | 211° |
| 2026-05-05 15:51 | 55.61587 | 12.64461 | 24 ft | 7 kts | 211° |
| 2026-05-05 15:51 | 55.61535 | 12.64403 | 24 ft | 10 kts | 212° |
| 2026-05-05 15:52 | 55.61467 | 12.64324 | 24 ft | 13 kts | 214° |
| 2026-05-05 15:52 | 55.61384 | 12.64228 | 25 ft | 16 kts | 213° |
| 2026-05-05 15:52 | 55.61284 | 12.64110 | 24 ft | 18 kts | 211° |
| 2026-05-05 15:52 | 55.61170 | 12.63981 | 25 ft | 20 kts | 214° |
| 2026-05-05 15:53 | 55.61051 | 12.63841 | 25 ft | 21 kts | 213° |
| 2026-05-05 15:53 | 55.60925 | 12.63697 | 24 ft | 22 kts | 212° |
| 2026-05-05 15:53 | 55.60794 | 12.63553 | 25 ft | 22 kts | 213° |
| 2026-05-05 15:53 | 55.60675 | 12.63413 | 24 ft | 20 kts | 215° |
| 2026-05-05 15:54 | 55.60575 | 12.63266 | 24 ft | 18 kts | 221° |
| 2026-05-05 15:54 | 55.60480 | 12.63251 | 25 ft | 13 kts | 135° |
| 2026-05-05 15:54 | 55.60427 | 12.63372 | 24 ft | 11 kts | 121° |
| 2026-05-05 15:54 | 55.60446 | 12.63507 | 24 ft | 19 kts | 46° |
| 2026-05-05 15:55 | 55.60645 | 12.63812 | 27 ft | 68 kts | 40° |
| 2026-05-05 15:55 | 55.61158 | 12.64599 | 24 ft | 125 kts | 41° |
| 2026-05-05 15:55 | 55.61914 | 12.65798 | 203 ft | 153 kts | 40° |
| 2026-05-05 15:55 | 55.62708 | 12.67038 | 868 ft | 155 kts | 40° |
| 2026-05-05 15:56 | 55.63543 | 12.68386 | 1317 ft | 175 kts | 40° |
| 2026-05-05 15:56 | 55.64516 | 12.69895 | 1608 ft | 197 kts | 38° |
| 2026-05-05 15:56 | 55.65602 | 12.71541 | 1981 ft | 215 kts | 38° |
| 2026-05-05 15:56 | 55.66780 | 12.73287 | 2615 ft | 224 kts | 38° |
| 2026-05-05 15:57 | 55.68032 | 12.75134 | 3175 ft | 242 kts | 38° |
| 2026-05-05 15:57 | 55.69258 | 12.77255 | 3978 ft | 252 kts | 52° |
| 2026-05-05 15:57 | 55.69971 | 12.80146 | 4811 ft | 263 kts | 77° |
| 2026-05-05 15:57 | 55.69937 | 12.83428 | 5635 ft | 274 kts | 102° |
| 2026-05-05 15:58 | 55.69065 | 12.86481 | 6424 ft | 283 kts | 131° |
| 2026-05-05 15:58 | 55.67492 | 12.88564 | 7184 ft | 286 kts | 159° |
| 2026-05-05 15:58 | 55.65623 | 12.89786 | 8017 ft | 287 kts | 163° |
| 2026-05-05 15:58 | 55.63708 | 12.90817 | 8872 ft | 287 kts | 174° |
| 2026-05-05 15:59 | 55.61725 | 12.91001 | 9726 ft | 285 kts | 190° |
| 2026-05-05 15:59 | 55.59782 | 12.90266 | 10245 ft | 293 kts | 204° |
| 2026-05-05 15:59 | 55.57957 | 12.88555 | 10459 ft | 311 kts | 220° |
| 2026-05-05 15:59 | 55.56330 | 12.85877 | 10625 ft | 331 kts | 229° |
| 2026-05-05 16:00 | 55.54682 | 12.82847 | 10752 ft | 353 kts | 228° |
| 2026-05-05 16:00 | 55.52931 | 12.79647 | 10954 ft | 370 kts | 228° |
| 2026-05-05 16:00 | 55.51133 | 12.76353 | 11491 ft | 375 kts | 229° |
| 2026-05-05 16:00 | 55.49385 | 12.72912 | 12133 ft | 377 kts | 231° |
| 2026-05-05 16:01 | 55.47689 | 12.69365 | 12796 ft | 379 kts | 232° |
| 2026-05-05 16:01 | 55.46011 | 12.65756 | 13451 ft | 382 kts | 233° |
| 2026-05-05 16:01 | 55.44325 | 12.62115 | 14054 ft | 384 kts | 233° |
| 2026-05-05 16:01 | 55.42622 | 12.58469 | 14622 ft | 387 kts | 232° |
| 2026-05-05 16:02 | 55.40893 | 12.54811 | 15150 ft | 389 kts | 232° |
| 2026-05-05 16:02 | 55.39145 | 12.51152 | 15681 ft | 392 kts | 232° |
| 2026-05-05 16:02 | 55.37383 | 12.47485 | 16195 ft | 394 kts | 232° |
| 2026-05-05 16:02 | 55.35606 | 12.43797 | 16697 ft | 396 kts | 232° |
| 2026-05-05 16:03 | 55.33813 | 12.40076 | 17181 ft | 399 kts | 232° |
| 2026-05-05 16:03 | 55.32019 | 12.36356 | 17661 ft | 401 kts | 232° |
| 2026-05-05 16:03 | 55.30209 | 12.32611 | 18126 ft | 403 kts | 232° |
| 2026-05-05 16:03 | 55.28386 | 12.28847 | 18521 ft | 406 kts | 232° |
| 2026-05-05 16:04 | 55.26579 | 12.25118 | 18890 ft | 408 kts | 232° |
| 2026-05-05 16:04 | 55.24707 | 12.21268 | 19257 ft | 410 kts | 231° |
| 2026-05-05 16:04 | 55.22850 | 12.17459 | 19616 ft | 412 kts | 231° |
| 2026-05-05 16:04 | 55.20980 | 12.13708 | 19953 ft | 415 kts | 228° |
| 2026-05-05 16:05 | 55.18806 | 12.10344 | 20283 ft | 421 kts | 219° |
| 2026-05-05 16:05 | 55.16432 | 12.07303 | 20615 ft | 423 kts | 219° |
| 2026-05-05 16:05 | 55.14055 | 12.04263 | 20937 ft | 424 kts | 219° |
| 2026-05-05 16:05 | 55.11669 | 12.01209 | 21251 ft | 426 kts | 219° |
| 2026-05-05 16:06 | 55.09271 | 11.98142 | 21560 ft | 428 kts | 219° |
| 2026-05-05 16:06 | 55.06861 | 11.95069 | 21841 ft | 430 kts | 219° |
| 2026-05-05 16:06 | 55.04439 | 11.91992 | 21922 ft | 433 kts | 219° |
| 2026-05-05 16:06 | 55.02001 | 11.88901 | 21929 ft | 434 kts | 219° |
| 2026-05-05 16:07 | 54.99553 | 11.85800 | 21932 ft | 434 kts | 219° |
| 2026-05-05 16:07 | 54.97109 | 11.82705 | 21920 ft | 434 kts | 219° |
| 2026-05-05 16:07 | 54.94666 | 11.79617 | 21928 ft | 434 kts | 219° |
| 2026-05-05 16:07 | 54.92218 | 11.76530 | 21923 ft | 434 kts | 219° |
| 2026-05-05 16:08 | 54.89769 | 11.73442 | 21927 ft | 434 kts | 219° |
| 2026-05-05 16:08 | 54.87326 | 11.70361 | 21925 ft | 434 kts | 219° |
| 2026-05-05 16:08 | 54.84880 | 11.67285 | 21928 ft | 434 kts | 219° |
| 2026-05-05 16:08 | 54.82462 | 11.64256 | 21924 ft | 434 kts | 219° |
| 2026-05-05 16:09 | 54.80016 | 11.61193 | 21921 ft | 434 kts | 219° |
| 2026-05-05 16:09 | 54.77572 | 11.58136 | 21918 ft | 434 kts | 219° |
| 2026-05-05 16:09 | 54.75123 | 11.55077 | 21921 ft | 433 kts | 219° |
| 2026-05-05 16:09 | 54.72675 | 11.52028 | 21920 ft | 433 kts | 219° |
| 2026-05-05 16:10 | 54.70226 | 11.48982 | 21918 ft | 433 kts | 219° |
| 2026-05-05 16:10 | 54.67781 | 11.45943 | 21922 ft | 433 kts | 219° |
| 2026-05-05 16:10 | 54.65335 | 11.42907 | 21923 ft | 433 kts | 219° |
| 2026-05-05 16:10 | 54.62890 | 11.39878 | 21930 ft | 433 kts | 219° |
| 2026-05-05 16:11 | 54.60444 | 11.36856 | 21925 ft | 432 kts | 219° |
| 2026-05-05 16:11 | 54.53102 | 11.27814 | 21917 ft | 432 kts | 219° |
| 2026-05-05 16:12 | 54.50649 | 11.24817 | 21911 ft | 432 kts | 219° |
| 2026-05-05 16:12 | 54.45736 | 11.18853 | 21908 ft | 432 kts | 219° |
| 2026-05-05 16:13 | 54.39184 | 11.10930 | 21903 ft | 432 kts | 219° |
| 2026-05-05 16:13 | 54.36725 | 11.07964 | 21898 ft | 433 kts | 219° |
| 2026-05-05 16:13 | 54.34260 | 11.04994 | 21902 ft | 433 kts | 219° |
| 2026-05-05 16:14 | 54.29678 | 10.98435 | 21897 ft | 427 kts | 231° |
| 2026-05-05 16:14 | 54.26032 | 10.90451 | 21897 ft | 426 kts | 235° |
| 2026-05-05 16:15 | 54.22413 | 10.82445 | 21928 ft | 423 kts | 234° |
| 2026-05-05 16:15 | 54.18959 | 10.74862 | 21711 ft | 387 kts | 234° |
| 2026-05-05 16:16 | 54.15785 | 10.67892 | 21455 ft | 358 kts | 235° |
| 2026-05-05 16:16 | 54.12842 | 10.61424 | 21173 ft | 333 kts | 235° |
| 2026-05-05 16:17 | 54.09958 | 10.55084 | 19684 ft | 341 kts | 235° |
| 2026-05-05 16:17 | 54.08512 | 10.51919 | 18949 ft | 335 kts | 235° |
| 2026-05-05 16:18 | 54.05708 | 10.45810 | 17641 ft | 320 kts | 235° |
| 2026-05-05 16:18 | 54.04346 | 10.42853 | 16949 ft | 314 kts | 234° |
| 2026-05-05 16:18 | 54.01690 | 10.37085 | 15618 ft | 305 kts | 234° |
| 2026-05-05 16:19 | 54.00230 | 10.34488 | 14966 ft | 304 kts | 222° |
| 2026-05-05 16:19 | 53.98480 | 10.32486 | 14332 ft | 304 kts | 210° |
| 2026-05-05 16:19 | 53.94418 | 10.30569 | 13013 ft | 306 kts | 186° |
| 2026-05-05 16:20 | 53.90200 | 10.31431 | 11666 ft | 305 kts | 172° |
| 2026-05-05 16:20 | 53.86074 | 10.32811 | 10369 ft | 299 kts | 172° |
| 2026-05-05 16:21 | 53.82052 | 10.34140 | 9045 ft | 293 kts | 172° |
| 2026-05-05 16:22 | 53.76145 | 10.36080 | 7060 ft | 284 kts | 171° |
| 2026-05-05 16:22 | 53.72300 | 10.36611 | 5747 ft | 273 kts | 195° |
| 2026-05-05 16:23 | 53.69205 | 10.33369 | 4436 ft | 261 kts | 233° |
| 2026-05-05 16:23 | 53.68110 | 10.31085 | 4261 ft | 240 kts | 232° |
| 2026-05-05 16:23 | 53.66045 | 10.26875 | 4562 ft | 232 kts | 232° |
| 2026-05-05 16:24 | 53.65008 | 10.24764 | 4719 ft | 234 kts | 232° |
| 2026-05-05 16:24 | 53.63978 | 10.22666 | 4716 ft | 232 kts | 232° |
| 2026-05-05 16:24 | 53.61916 | 10.18474 | 4716 ft | 232 kts | 232° |
| 2026-05-05 16:25 | 53.60886 | 10.16388 | 4727 ft | 231 kts | 232° |
| 2026-05-05 16:25 | 53.58831 | 10.12216 | 4867 ft | 230 kts | 232° |
| 2026-05-05 16:25 | 53.57802 | 10.10125 | 4979 ft | 232 kts | 232° |
| 2026-05-05 16:26 | 53.55741 | 10.05947 | 5000 ft | 232 kts | 232° |
| 2026-05-05 16:26 | 53.53680 | 10.01781 | 5007 ft | 232 kts | 232° |
| 2026-05-05 16:27 | 53.52648 | 9.99702 | 5012 ft | 231 kts | 232° |
| 2026-05-05 16:27 | 53.51616 | 9.97623 | 5006 ft | 232 kts | 232° |
| 2026-05-05 16:27 | 53.50599 | 9.95571 | 5005 ft | 232 kts | 231° |
| 2026-05-05 16:27 | 53.49568 | 9.93490 | 5004 ft | 232 kts | 232° |
| 2026-05-05 16:28 | 53.48539 | 9.91412 | 5007 ft | 231 kts | 232° |
| 2026-05-05 16:28 | 53.47508 | 9.89336 | 5011 ft | 232 kts | 231° |
| 2026-05-05 16:28 | 53.46473 | 9.87259 | 5013 ft | 232 kts | 231° |
| 2026-05-05 16:28 | 53.45439 | 9.85183 | 5006 ft | 232 kts | 231° |
| 2026-05-05 16:29 | 53.44409 | 9.83112 | 5006 ft | 231 kts | 231° |
| 2026-05-05 16:29 | 53.43376 | 9.81043 | 5010 ft | 231 kts | 231° |
| 2026-05-05 16:29 | 53.42344 | 9.78974 | 5008 ft | 231 kts | 231° |
| 2026-05-05 16:29 | 53.41311 | 9.76902 | 5008 ft | 231 kts | 231° |
| 2026-05-05 16:30 | 53.40278 | 9.74837 | 5001 ft | 231 kts | 231° |
| 2026-05-05 16:30 | 53.39242 | 9.72771 | 4947 ft | 232 kts | 231° |
| 2026-05-05 16:30 | 53.38204 | 9.70702 | 4821 ft | 231 kts | 231° |
| 2026-05-05 16:30 | 53.37170 | 9.68642 | 4695 ft | 231 kts | 231° |
| 2026-05-05 16:31 | 53.36139 | 9.66585 | 4558 ft | 231 kts | 231° |
| 2026-05-05 16:31 | 53.35107 | 9.64524 | 4419 ft | 231 kts | 231° |
| 2026-05-05 16:31 | 53.34072 | 9.62462 | 4295 ft | 231 kts | 231° |
| 2026-05-05 16:31 | 53.33037 | 9.60399 | 4165 ft | 232 kts | 231° |
| 2026-05-05 16:32 | 53.32000 | 9.58336 | 4035 ft | 232 kts | 231° |
| 2026-05-05 16:32 | 53.30963 | 9.56265 | 3901 ft | 238 kts | 233° |
| 2026-05-05 16:32 | 53.30241 | 9.53645 | 3793 ft | 256 kts | 262° |
| 2026-05-05 16:32 | 53.30403 | 9.50698 | 3793 ft | 258 kts | 292° |
| 2026-05-05 16:33 | 53.31416 | 9.48253 | 3792 ft | 259 kts | 321° |
| 2026-05-05 16:33 | 53.33021 | 9.46955 | 3791 ft | 259 kts | 349° |
| 2026-05-05 16:33 | 53.34800 | 9.47136 | 3786 ft | 254 kts | 19° |
| 2026-05-05 16:33 | 53.36287 | 9.48477 | 3783 ft | 236 kts | 32° |
| 2026-05-05 16:34 | 53.37624 | 9.50013 | 3877 ft | 231 kts | 34° |
| 2026-05-05 16:34 | 53.38954 | 9.51573 | 3984 ft | 234 kts | 33° |
| 2026-05-05 16:34 | 53.40230 | 9.53279 | 4000 ft | 235 kts | 43° |
| 2026-05-05 16:34 | 53.41338 | 9.55302 | 4003 ft | 236 kts | 49° |
| 2026-05-05 16:35 | 53.42393 | 9.57410 | 4004 ft | 236 kts | 49° |
| 2026-05-05 16:35 | 53.43448 | 9.59523 | 4004 ft | 236 kts | 49° |
| 2026-05-05 16:35 | 53.44506 | 9.61633 | 4008 ft | 236 kts | 49° |
| 2026-05-05 16:35 | 53.45572 | 9.63755 | 3880 ft | 238 kts | 49° |
| 2026-05-05 16:36 | 53.46626 | 9.65858 | 3667 ft | 235 kts | 49° |
| 2026-05-05 16:36 | 53.47689 | 9.67980 | 3250 ft | 239 kts | 49° |
| 2026-05-05 16:36 | 53.48755 | 9.70109 | 2999 ft | 234 kts | 48° |
| 2026-05-05 16:36 | 53.49779 | 9.72159 | 2999 ft | 221 kts | 49° |
| 2026-05-05 16:37 | 53.50716 | 9.74036 | 2988 ft | 198 kts | 48° |
| 2026-05-05 16:37 | 53.51568 | 9.75742 | 3032 ft | 186 kts | 48° |
| 2026-05-05 16:37 | 53.52386 | 9.77379 | 2930 ft | 180 kts | 49° |
| 2026-05-05 16:37 | 53.53176 | 9.78962 | 2733 ft | 178 kts | 48° |
| 2026-05-05 16:38 | 53.53964 | 9.80544 | 2509 ft | 176 kts | 47° |
| 2026-05-05 16:38 | 53.54747 | 9.82115 | 2275 ft | 175 kts | 47° |
| 2026-05-05 16:38 | 53.55522 | 9.83672 | 2048 ft | 173 kts | 47° |
| 2026-05-05 16:38 | 53.56292 | 9.85220 | 1805 ft | 171 kts | 49° |
| 2026-05-05 16:39 | 53.57053 | 9.86750 | 1579 ft | 170 kts | 49° |
| 2026-05-05 16:39 | 53.57790 | 9.88236 | 1371 ft | 157 kts | 48° |
| 2026-05-05 16:39 | 53.58463 | 9.89591 | 1140 ft | 145 kts | 47° |
| 2026-05-05 16:39 | 53.59096 | 9.90867 | 944 ft | 140 kts | 48° |
| 2026-05-05 16:40 | 53.59712 | 9.92108 | 774 ft | 136 kts | 49° |
| 2026-05-05 16:40 | 53.60323 | 9.93325 | 589 ft | 134 kts | 49° |
| 2026-05-05 16:40 | 53.60927 | 9.94530 | 390 ft | 134 kts | 51° |
| 2026-05-05 16:40 | 53.61527 | 9.95721 | 227 ft | 133 kts | 51° |
| 2026-05-05 16:41 | 53.62104 | 9.96920 | 65 ft | 131 kts | 52° |
| 2026-05-05 16:41 | 53.62639 | 9.98009 | 42 ft | 106 kts | 51° |
| 2026-05-05 16:41 | 53.63032 | 9.98816 | 46 ft | 72 kts | 50° |
| 2026-05-05 16:41 | 53.63266 | 9.99304 | 47 ft | 36 kts | 61° |
| 2026-05-05 16:42 | 53.63283 | 9.99601 | 48 ft | 18 kts | 98° |
| 2026-05-05 16:42 | 53.63280 | 9.99630 | 48 ft | 0 kts | 98° |
| 2026-05-05 16:43 | 53.63279 | 9.99639 | 48 ft | 2 kts | 99° |
| 2026-05-05 16:43 | 53.63279 | 9.99744 | 48 ft | 14 kts | 71° |
| 2026-05-05 16:43 | 53.63353 | 9.99911 | 48 ft | 20 kts | 49° |
| 2026-05-05 16:43 | 53.63432 | 10.00079 | 48 ft | 12 kts | 58° |
| 2026-05-05 16:44 | 53.63430 | 10.00191 | 48 ft | 8 kts | 118° |
| 2026-05-05 16:44 | 53.63410 | 10.00269 | 48 ft | 4 kts | 85° |
| 2026-05-05 16:44 | 53.63414 | 10.00323 | 48 ft | 3 kts | 82° |
| 2026-05-05 16:44 | 53.63415 | 10.00337 | 48 ft | 0 kts | 84° |